createdAt,value
2018-11-29T00:02:06.521Z,115.00
2018-11-29T00:04:52.953Z,123.25
2018-11-29T00:07:40.093Z,119.50
2018-11-29T00:10:11.757Z,128.00
2018-11-29T00:12:43.690Z,122.75
2018-11-29T00:15:16.894Z,131.00
2018-11-29T00:17:48.658Z,130.75
2018-11-29T00:20:21.071Z,119.75
2018-11-29T00:22:53.404Z,118.75
2018-11-29T00:25:25.430Z,123.00
2018-11-29T00:27:57.060Z,129.50
2018-11-29T00:30:29.712Z,118.00
2018-11-29T00:33:01.777Z,119.00
2018-11-29T00:35:33.608Z,126.50
2018-11-29T00:38:05.553Z,128.00
2018-11-29T00:40:37.307Z,123.50
2018-11-29T00:43:10.682Z,122.50
2018-11-29T00:45:42.835Z,131.75
2018-11-29T00:48:15.696Z,127.75
2018-11-29T00:50:47.576Z,126.50
2018-11-29T00:53:19.521Z,117.25
2018-11-29T00:55:51.063Z,129.75
2018-11-29T00:58:22.612Z,130.25
2018-11-29T01:00:54.504Z,137.50
2018-11-29T01:03:26.251Z,127.00
2018-11-29T01:05:58.196Z,146.75
2018-11-29T01:08:30.427Z,148.00
2018-11-29T01:11:02.644Z,147.00
2018-11-29T01:13:34.535Z,149.00
2018-11-29T01:16:06.804Z,146.25
2018-11-29T01:18:38.666Z,131.00
2018-11-29T01:21:10.381Z,138.00
2018-11-29T01:23:42.117Z,136.75
2018-11-29T01:26:13.862Z,144.00
2018-11-29T01:28:45.680Z,139.50
2018-11-29T01:31:17.788Z,144.25
2018-11-29T01:33:49.503Z,127.75
2018-11-29T01:36:21.244Z,136.75
2018-11-29T01:38:53.067Z,150.00
2018-11-29T01:41:25.066Z,132.75
2018-11-29T01:43:56.818Z,130.50
2018-11-29T01:46:29.456Z,135.25
2018-11-29T01:49:01.550Z,125.75
2018-11-29T01:51:33.909Z,133.00
2018-11-29T01:54:05.744Z,131.00
2018-11-29T01:56:37.844Z,142.25
2018-11-29T01:59:10.021Z,136.50
2018-11-29T02:01:42.660Z,136.00
2018-11-29T02:04:14.625Z,141.00
2018-11-29T02:06:46.714Z,149.75
2018-11-29T02:09:18.452Z,143.50
2018-11-29T02:11:50.844Z,137.75
2018-11-29T02:14:23.128Z,150.25
2018-11-29T02:16:55.466Z,155.25
2018-11-29T02:19:27.118Z,144.50
2018-11-29T02:21:59.044Z,148.50
2018-11-29T02:24:30.934Z,144.00
2018-11-29T02:27:02.846Z,153.75
2018-11-29T02:29:34.796Z,150.25
2018-11-29T02:32:06.787Z,149.25
2018-11-29T02:34:38.553Z,157.00
2018-11-29T02:37:09.959Z,152.50
2018-11-29T02:39:41.771Z,153.75
2018-11-29T02:42:13.844Z,166.00
2018-11-29T02:44:46.029Z,163.75
2018-11-29T02:47:18.223Z,170.00
2018-11-29T02:49:50.329Z,169.25
2018-11-29T02:52:22.571Z,158.00
2018-11-29T02:54:54.504Z,156.75
2018-11-29T02:57:26.233Z,176.75
2018-11-29T02:59:59.318Z,163.25
2018-11-29T03:02:31.012Z,171.50
2018-11-29T03:05:03.003Z,169.75
2018-11-29T03:07:37.633Z,164.75
2018-11-29T03:10:11.054Z,163.25
2018-11-29T03:12:45.758Z,152.00
2018-11-29T03:15:17.646Z,155.50
2018-11-29T03:17:49.873Z,148.50
2018-11-29T03:20:21.692Z,160.75
2018-11-29T03:22:54.087Z,147.50
2018-11-29T03:25:26.349Z,148.00
2018-11-29T03:27:58.291Z,149.50
2018-11-29T03:30:30.147Z,153.50
2018-11-29T03:33:02.408Z,133.00
2018-11-29T03:35:34.340Z,143.50
2018-11-29T03:38:06.127Z,144.00
2018-11-29T03:40:38.060Z,142.00
2018-11-29T03:43:09.810Z,154.25
2018-11-29T03:45:41.402Z,149.25
2018-11-29T03:48:13.782Z,145.50
2018-11-29T03:50:45.380Z,154.25
2018-11-29T03:53:16.931Z,146.75
2018-11-29T03:55:48.393Z,146.75
2018-11-29T03:58:20.098Z,150.00
2018-11-29T04:00:51.681Z,138.75
2018-11-29T04:03:23.421Z,142.50
2018-11-29T04:05:54.929Z,136.00
2018-11-29T04:08:26.736Z,127.25
2018-11-29T04:10:58.959Z,142.25
2018-11-29T04:13:30.990Z,144.75
2018-11-29T04:16:02.735Z,159.75
2018-11-29T04:18:35.030Z,148.50
2018-11-29T04:21:06.930Z,149.75
2018-11-29T04:23:38.895Z,147.50
2018-11-29T04:26:10.761Z,159.50
2018-11-29T04:28:42.741Z,161.50
2018-11-29T04:31:15.951Z,154.00
2018-11-29T04:33:49.018Z,159.50
2018-11-29T04:36:20.858Z,152.25
2018-11-29T04:38:52.561Z,159.25
2018-11-29T04:41:24.191Z,162.25
2018-11-29T04:43:55.816Z,147.50
2018-11-29T04:46:49.509Z,160.00
2018-11-29T04:49:23.091Z,155.50
2018-11-29T04:51:58.278Z,149.25
2018-11-29T04:54:29.958Z,143.00
2018-11-29T04:57:01.613Z,143.25
2018-11-29T04:59:36.401Z,141.25
2018-11-29T05:02:08.773Z,134.25
2018-11-29T05:04:40.374Z,130.00
2018-11-29T05:07:12.958Z,130.75
2018-11-29T05:09:44.528Z,127.75
2018-11-29T05:12:18.739Z,132.75
2018-11-29T05:14:51.372Z,127.50
2018-11-29T05:17:23.050Z,135.75
2018-11-29T05:19:56.261Z,133.00
2018-11-29T05:22:27.755Z,145.00
2018-11-29T05:25:02.240Z,138.75
2018-11-29T05:27:38.713Z,141.25
2018-11-29T05:30:15.557Z,138.00
2018-11-29T05:32:47.111Z,142.00
2018-11-29T05:35:18.803Z,133.50
2018-11-29T05:37:50.349Z,134.75
2018-11-29T05:40:27.602Z,148.00
2018-11-29T05:43:00.447Z,138.00
2018-11-29T05:45:32.042Z,149.00
2018-11-29T05:48:03.660Z,139.50
2018-11-29T05:50:36.077Z,131.25
2018-11-29T05:53:09.603Z,126.75
2018-11-29T05:55:41.212Z,117.50
2018-11-29T05:58:13.074Z,115.25
2018-11-29T06:00:46.351Z,115.25
2018-11-29T06:03:18.839Z,119.75
2018-11-29T06:05:50.584Z,113.50
2018-11-29T06:08:22.057Z,115.50
2018-11-29T06:10:55.482Z,112.50
2018-11-29T06:13:27.457Z,104.00
2018-11-29T06:16:01.091Z,114.00
2018-11-29T06:18:32.588Z,96.75
2018-11-29T06:21:04.855Z,103.25
2018-11-29T06:23:37.452Z,105.75
2018-11-29T06:26:10.395Z,106.00
2018-11-29T06:28:42.126Z,96.50
2018-11-29T06:31:16.962Z,103.00
2018-11-29T06:33:48.504Z,98.20
2018-11-29T06:36:25.082Z,99.60
2018-11-29T06:38:56.844Z,99.00
2018-11-29T06:41:28.689Z,95.50
2018-11-29T06:44:05.164Z,101.40
2018-11-29T06:46:41.641Z,92.40
2018-11-29T06:49:13.335Z,96.80
2018-11-29T06:51:46.246Z,95.20
2018-11-29T06:54:18.119Z,92.80
2018-11-29T06:56:52.682Z,90.20
2018-11-29T06:59:24.560Z,94.20
2018-11-29T07:02:00.709Z,93.20
2018-11-29T07:04:33.636Z,93.40
2018-11-29T07:07:59.518Z,93.80
2018-11-29T07:10:37.467Z,106.75
2018-11-29T07:13:09.927Z,99.60
2018-11-29T07:15:41.568Z,97.00
2018-11-29T07:18:13.273Z,92.20
2018-11-29T07:20:49.348Z,83.60
2018-11-29T07:23:21.735Z,88.60
2018-11-29T07:25:53.643Z,90.80
2018-11-29T07:28:29.795Z,89.20
2018-11-29T07:31:09.143Z,88.40
2018-11-29T07:33:46.850Z,88.60
2018-11-29T07:36:18.451Z,90.00
2018-11-29T07:38:55.032Z,91.20
2018-11-29T07:41:26.706Z,85.00
2018-11-29T07:43:58.385Z,85.80
2018-11-29T07:46:30.756Z,79.80
2018-11-29T07:49:03.881Z,92.80
2018-11-29T07:51:35.596Z,79.00
2018-11-29T07:54:09.654Z,86.80
2018-11-29T07:56:42.701Z,86.00
2018-11-29T07:59:14.501Z,84.80
2018-11-29T08:01:46.052Z,87.25
2018-11-29T08:04:17.763Z,81.20
2018-11-29T08:06:49.375Z,84.40
2018-11-29T08:09:21.119Z,86.40
2018-11-29T08:11:52.662Z,87.20
2018-11-29T08:14:25.373Z,86.40
2018-11-29T08:16:56.976Z,81.40
2018-11-29T08:19:28.813Z,86.00
2018-11-29T08:22:00.615Z,95.00
2018-11-29T08:24:34.033Z,83.80
2018-11-29T08:27:12.931Z,83.40
2018-11-29T08:29:45.401Z,88.00
2018-11-29T08:32:17.051Z,88.60
2018-11-29T08:34:48.703Z,88.00
2018-11-29T08:37:23.919Z,88.60
2018-11-29T08:39:55.728Z,83.00
2018-11-29T08:42:27.867Z,101.00
2018-11-29T08:44:59.491Z,124.50
2018-11-29T08:47:31.258Z,105.25
2018-11-29T08:50:07.769Z,91.40
2018-11-29T08:52:40.806Z,76.20
2018-11-29T08:55:20.303Z,90.20
2018-11-29T08:57:52.925Z,89.80
2018-11-29T09:00:27.160Z,92.80
2018-11-29T09:02:59.089Z,89.80
2018-11-29T09:05:35.506Z,90.40
2018-11-29T09:08:08.266Z,90.60
2018-11-29T09:10:40.809Z,90.00
2018-11-29T09:13:16.611Z,88.00
2018-11-29T09:15:48.228Z,84.60
2018-11-29T09:18:19.958Z,93.40
2018-11-29T09:20:51.578Z,95.20
2018-11-29T09:23:26.843Z,93.60
2018-11-29T09:25:59.486Z,96.40
2018-11-29T09:28:32.670Z,93.40
2018-11-29T09:31:04.470Z,90.80
2018-11-29T09:33:36.672Z,91.20
2018-11-29T09:36:08.934Z,95.00
2018-11-29T09:38:40.715Z,83.80
2018-11-29T09:41:12.364Z,93.20
2018-11-29T09:43:44.606Z,91.00
2018-11-29T09:46:21.254Z,85.60
2018-11-29T09:48:55.077Z,82.80
2018-11-29T09:51:27.749Z,86.00
2018-11-29T09:53:59.671Z,88.40
2018-11-29T09:56:31.794Z,88.20
2018-11-29T09:59:03.764Z,87.80
2018-11-29T10:01:35.497Z,91.40
2018-11-29T10:04:07.584Z,94.00
2018-11-29T10:06:40.495Z,91.20
2018-11-29T10:09:14.186Z,85.80
2018-11-29T10:11:48.063Z,89.80
2018-11-29T10:14:19.800Z,84.40
2018-11-29T10:16:51.605Z,80.00
2018-11-29T10:19:23.233Z,83.40
2018-11-29T10:21:56.047Z,83.40
2018-11-29T10:24:27.415Z,86.60
2018-11-29T10:26:59.559Z,89.40
2018-11-29T10:29:34.875Z,89.40
2018-11-29T10:32:06.613Z,87.80
2018-11-29T10:34:38.191Z,83.60
2018-11-29T10:37:10.765Z,94.60
2018-11-29T10:39:42.616Z,92.80
2018-11-29T10:42:14.655Z,99.60
2018-11-29T10:44:46.263Z,97.00
2018-11-29T10:47:19.942Z,93.80
2018-11-29T10:49:54.676Z,97.20
2018-11-29T10:52:29.439Z,95.60
2018-11-29T10:55:02.057Z,87.00
2018-11-29T10:57:38.016Z,91.00
2018-11-29T11:00:18.958Z,88.20
2018-11-29T11:02:57.452Z,90.20
2018-11-29T11:05:29.008Z,89.20
2018-11-29T11:08:07.889Z,79.80
2018-11-29T11:10:33.884Z,89.00
2018-11-29T11:13:10.127Z,87.60
2018-11-29T11:15:42.047Z,86.80
2018-11-29T11:18:15.805Z,90.00
2018-11-29T11:20:49.432Z,88.40
2018-11-29T11:23:23.148Z,83.00
2018-11-29T11:25:54.898Z,80.80
2018-11-29T11:28:27.239Z,80.00
2018-11-29T11:31:02.112Z,81.60
2018-11-29T11:33:33.690Z,84.40
2018-11-29T11:36:06.756Z,86.20
2018-11-29T11:38:38.857Z,87.80
2018-11-29T11:41:10.556Z,84.40
2018-11-29T11:43:42.337Z,80.40
2018-11-29T11:46:14.031Z,88.20
2018-11-29T11:48:46.046Z,87.20
2018-11-29T11:51:18.989Z,83.60
2018-11-29T11:53:50.780Z,83.80
2018-11-29T11:56:22.634Z,80.80
2018-11-29T11:59:00.839Z,83.80
2018-11-29T12:01:32.404Z,81.00
2018-11-29T12:04:04.921Z,89.20
2018-11-29T12:06:36.609Z,89.60
2018-11-29T12:09:11.233Z,88.40
2018-11-29T12:11:43.839Z,81.80
2018-11-29T12:14:15.536Z,83.00
2018-11-29T12:16:50.852Z,89.60
2018-11-29T12:19:23.716Z,92.60
2018-11-29T12:21:55.451Z,87.80
2018-11-29T12:24:27.318Z,93.20
2018-11-29T12:26:59.148Z,92.60
2018-11-29T12:29:31.261Z,88.20
2018-11-29T12:32:03.401Z,102.20
2018-11-29T12:34:41.919Z,100.00
2018-11-29T12:37:17.958Z,112.25
2018-11-29T12:39:50.043Z,117.50
2018-11-29T12:42:21.647Z,125.25
2018-11-29T12:44:57.134Z,121.00
2018-11-29T12:47:39.212Z,127.50
2018-11-29T12:50:15.868Z,124.75
2018-11-29T12:52:47.231Z,134.75
2018-11-29T12:55:24.328Z,134.00
2018-11-29T12:58:05.404Z,131.25
2018-11-29T13:00:28.582Z,148.75
2018-11-29T13:03:00.971Z,161.25
2018-11-29T13:05:38.372Z,158.50
2018-11-29T13:08:10.574Z,164.00
2018-11-29T13:10:43.281Z,162.75
2018-11-29T13:13:15.255Z,160.25
2018-11-29T13:15:46.998Z,163.25
2018-11-29T13:18:18.717Z,164.75
2018-11-29T13:20:50.458Z,176.25
2018-11-29T13:23:23.974Z,177.20
2018-11-29T13:25:58.966Z,184.80
2018-11-29T13:28:30.462Z,173.60
2018-11-29T13:31:02.965Z,182.40
2018-11-29T13:33:34.622Z,181.60
2018-11-29T13:36:06.889Z,178.60
2018-11-29T13:38:38.887Z,185.20
2018-11-29T13:41:10.698Z,177.80
2018-11-29T13:43:42.195Z,194.40
2018-11-29T13:46:13.795Z,207.40
2018-11-29T13:48:45.197Z,194.80
2018-11-29T13:51:16.672Z,206.80
2018-11-29T13:53:48.192Z,206.20
2018-11-29T13:56:20.847Z,209.80
2018-11-29T13:58:56.189Z,214.60
2018-11-29T14:01:29.295Z,219.00
2018-11-29T14:04:04.864Z,231.00
2018-11-29T14:06:37.376Z,213.60
2018-11-29T14:09:10.913Z,217.20
2018-11-29T14:11:43.524Z,194.60
2018-11-29T14:14:14.947Z,198.40
2018-11-29T14:16:46.563Z,180.60
2018-11-29T14:19:22.140Z,175.20
2018-11-29T14:21:53.704Z,163.60
2018-11-29T14:24:27.672Z,173.20
2018-11-29T14:26:59.464Z,171.80
2018-11-29T14:29:31.056Z,171.50
2018-11-29T14:32:05.402Z,154.20
2018-11-29T14:34:36.965Z,167.25
2018-11-29T14:37:11.930Z,167.80
2018-11-29T14:39:44.096Z,164.25
2018-11-29T14:42:16.883Z,171.40
2018-11-29T14:44:48.565Z,181.60
2018-11-29T14:47:26.740Z,177.00
2018-11-29T14:49:59.325Z,175.20
2018-11-29T14:52:43.493Z,170.00
2018-11-29T14:55:22.016Z,175.80
2018-11-29T14:57:53.677Z,174.80
2018-11-29T15:03:25.095Z,179.80
2018-11-29T15:05:56.567Z,176.60
2018-11-29T15:08:29.094Z,176.80
2018-11-29T15:11:01.686Z,170.00
2018-11-29T15:13:33.996Z,182.40
2018-11-29T15:16:05.697Z,155.80
2018-11-29T15:18:37.489Z,166.60
2018-11-29T15:21:09.053Z,167.25
2018-11-29T15:23:41.205Z,156.25
2018-11-29T15:26:12.988Z,170.80
2018-11-29T15:28:44.516Z,170.80
2018-11-29T15:31:16.212Z,164.00
2018-11-29T15:33:51.849Z,175.60
2018-11-29T15:36:23.372Z,162.00
2018-11-29T15:38:54.905Z,164.75
2018-11-29T15:41:26.248Z,157.25
2018-11-29T15:43:57.834Z,159.00
2018-11-29T15:46:36.488Z,171.75
2018-11-29T15:49:08.375Z,162.50
2018-11-29T15:51:40.157Z,163.00
2018-11-29T15:54:11.807Z,156.25
2018-11-29T15:56:43.477Z,154.50
2018-11-29T15:59:14.832Z,156.75
2018-11-29T16:01:46.339Z,152.25
2018-11-29T16:04:19.559Z,153.25
2018-11-29T16:06:51.035Z,153.25
2018-11-29T16:09:22.624Z,143.25
2018-11-29T16:11:54.226Z,150.75
2018-11-29T16:14:25.914Z,151.25
2018-11-29T16:16:57.682Z,153.75
2018-11-29T16:19:32.255Z,149.50
2018-11-29T16:22:09.255Z,153.00
2018-11-29T16:24:46.778Z,146.25
2018-11-29T16:27:23.655Z,151.50
2018-11-29T16:29:58.763Z,142.50
2018-11-29T16:32:30.895Z,146.75
2018-11-29T16:35:09.805Z,146.75
2018-11-29T16:37:41.503Z,154.75
2018-11-29T16:40:18.539Z,149.25
2018-11-29T16:42:56.886Z,146.75
2018-11-29T16:45:28.632Z,149.75
2018-11-29T16:48:01.182Z,147.75
2018-11-29T16:50:33.823Z,148.50
2018-11-29T16:53:10.636Z,146.50
2018-11-29T16:55:48.804Z,146.25
2018-11-29T16:58:26.743Z,145.75
2018-11-29T17:01:08.651Z,148.75
2018-11-29T17:03:36.780Z,148.75
2018-11-29T17:06:08.920Z,137.25
2018-11-29T17:08:40.723Z,145.75
2018-11-29T17:11:12.440Z,144.25
2018-11-29T17:13:49.670Z,147.00
2018-11-29T17:16:26.775Z,155.25
2018-11-29T17:19:01.686Z,144.25
2018-11-29T17:21:35.316Z,152.00
2018-11-29T17:24:07.342Z,147.00
2018-11-29T17:26:38.888Z,150.75
2018-11-29T17:29:11.733Z,137.75
2018-11-29T17:31:43.254Z,152.50
2018-11-29T17:34:15.012Z,144.00
2018-11-29T17:36:47.009Z,155.75
2018-11-29T17:39:23.213Z,149.75
2018-11-29T17:41:56.694Z,144.75
2018-11-29T17:44:29.593Z,146.50
2018-11-29T17:47:04.473Z,150.25
2018-11-29T17:49:37.163Z,145.25
2018-11-29T17:52:13.254Z,141.75
2018-11-29T17:54:44.967Z,153.25
2018-11-29T17:57:16.530Z,156.25
2018-11-29T17:59:48.245Z,147.50
2018-11-29T18:02:19.745Z,144.00
2018-11-29T18:04:51.372Z,150.00
2018-11-29T18:07:25.001Z,140.50
2018-11-29T18:09:56.663Z,142.75
2018-11-29T18:12:28.263Z,135.75
2018-11-29T18:15:00.048Z,142.25
2018-11-29T18:17:33.746Z,141.50
2018-11-29T18:20:05.317Z,153.75
2018-11-29T18:22:38.584Z,150.50
2018-11-29T18:25:13.412Z,142.00
2018-11-29T18:27:47.259Z,130.25
2018-11-29T18:30:19.963Z,139.75
2018-11-29T18:32:51.659Z,147.25
2018-11-29T18:35:23.406Z,135.00
2018-11-29T18:37:55.531Z,144.25
2018-11-29T18:40:28.229Z,143.00
2018-11-29T18:43:01.557Z,143.50
2018-11-29T18:45:33.370Z,144.50
2018-11-29T18:48:04.847Z,151.25
2018-11-29T18:50:36.604Z,143.00
2018-11-29T18:53:08.549Z,136.25
2018-11-29T18:55:41.181Z,132.50
2018-11-29T18:58:13.081Z,135.75
2018-11-29T19:00:44.957Z,141.75
2018-11-29T19:03:16.408Z,142.25
2018-11-29T19:05:48.174Z,139.00
2018-11-29T19:08:20.191Z,139.75
2018-11-29T19:10:52.839Z,133.50
2018-11-29T19:13:24.356Z,140.25
2018-11-29T19:15:56.063Z,132.25
2018-11-29T19:18:27.675Z,138.50
2018-11-29T19:20:59.234Z,129.50
2018-11-29T19:23:30.715Z,130.75
2018-11-29T19:26:02.920Z,137.50
2018-11-29T19:28:34.368Z,133.25
2018-11-29T19:31:06.247Z,134.25
2018-11-29T19:33:38.860Z,130.50
2018-11-29T19:36:10.316Z,124.50
2018-11-29T19:38:42.351Z,127.00
2018-11-29T19:41:14.106Z,126.75
2018-11-29T19:43:46.544Z,124.50
2018-11-29T19:46:18.239Z,127.00
2018-11-29T19:48:49.747Z,121.50
2018-11-29T19:51:24.360Z,119.75
2018-11-29T19:53:56.140Z,114.25
2018-11-29T19:56:27.923Z,124.00
2018-11-29T19:58:59.555Z,118.75
2018-11-29T20:01:31.393Z,124.00
2018-11-29T20:04:02.996Z,124.00
2018-11-29T20:06:34.601Z,120.50
2018-11-29T20:09:07.861Z,125.00
2018-11-29T20:11:39.824Z,128.25
2018-11-29T20:14:11.429Z,116.25
2018-11-29T20:16:42.934Z,110.00
2018-11-29T20:19:14.532Z,116.50
2018-11-29T20:21:46.135Z,118.00
2018-11-29T20:24:17.599Z,106.00
2018-11-29T20:26:49.150Z,107.25
2018-11-29T20:29:20.657Z,113.25
2018-11-29T20:31:52.284Z,112.25
2018-11-29T20:34:23.817Z,109.00
2018-11-29T20:36:56.469Z,106.75
2018-11-29T20:39:28.353Z,100.00
2018-11-29T20:42:00.738Z,108.75
2018-11-29T20:44:32.430Z,108.00
2018-11-29T20:47:04.998Z,109.00
2018-11-29T20:49:36.546Z,108.75
2018-11-29T20:52:08.463Z,112.50
2018-11-29T20:54:40.034Z,110.00
2018-11-29T20:57:12.131Z,102.25
2018-11-29T20:59:43.688Z,108.00
2018-11-29T21:02:15.710Z,110.25
2018-11-29T21:04:47.442Z,112.00
2018-11-29T21:07:19.077Z,99.50
2018-11-29T21:14:15.599Z,101.75
2018-11-29T21:16:45.729Z,99.75
2018-11-29T21:19:15.983Z,92.50
2018-11-29T21:21:46.162Z,97.25
2018-11-29T21:24:16.488Z,104.75
2018-11-29T21:26:46.699Z,106.50
2018-11-29T21:29:16.845Z,103.00
2018-11-29T21:31:46.859Z,103.75
2018-11-29T21:34:17.169Z,108.50
2018-11-29T21:36:47.265Z,108.00
2018-11-29T21:39:17.347Z,108.50
2018-11-29T21:41:47.749Z,96.50
2018-11-29T21:44:17.990Z,99.75
2018-11-29T21:46:47.985Z,103.75
2018-11-29T21:49:18.447Z,112.75
2018-11-29T21:51:48.612Z,103.00
2018-11-29T21:54:18.931Z,98.50
2018-11-29T21:56:49.073Z,103.00
2018-11-29T21:59:20.450Z,98.25
2018-11-29T22:01:50.632Z,101.50
2018-11-29T22:04:20.966Z,110.00
2018-11-29T22:06:52.046Z,106.00
2018-11-29T22:09:22.466Z,102.00
2018-11-29T22:11:53.131Z,102.50
2018-11-29T22:14:23.222Z,100.75
2018-11-29T22:16:53.325Z,107.00
2018-11-29T22:19:23.737Z,107.00
2018-11-29T22:21:53.752Z,93.75
2018-11-29T22:24:24.071Z,101.50
2018-11-29T22:26:54.190Z,98.50
2018-11-29T22:29:24.481Z,101.00
2018-11-29T22:31:54.711Z,110.75
2018-11-29T22:34:24.907Z,89.00
2018-11-29T22:36:55.049Z,105.50
2018-11-29T22:39:25.436Z,106.25
2018-11-29T22:41:55.842Z,102.50
2018-11-29T22:44:25.986Z,97.00
2018-11-29T22:46:56.112Z,92.75
2018-11-29T22:49:26.381Z,102.75
2018-11-29T22:51:56.410Z,103.00
2018-11-29T22:54:26.789Z,98.25
2018-11-29T22:56:56.819Z,95.75
2018-11-29T22:59:27.023Z,96.75
2018-11-29T23:01:57.025Z,93.50
2018-11-29T23:04:27.085Z,93.50
2018-11-29T23:06:57.088Z,96.00
2018-11-29T23:09:27.489Z,94.50
2018-11-29T23:11:57.891Z,97.25
2018-11-29T23:14:27.948Z,104.75
2018-11-29T23:16:57.884Z,86.25
2018-11-29T23:19:27.890Z,94.75
2018-11-29T23:21:57.978Z,91.25
2018-11-29T23:24:27.983Z,100.50
2018-11-29T23:26:57.961Z,95.25
2018-11-29T23:29:27.984Z,96.75
2018-11-29T23:31:58.021Z,97.50
2018-11-29T23:34:28.247Z,98.60
2018-11-29T23:36:58.264Z,100.50
2018-11-29T23:39:28.364Z,89.50
2018-11-29T23:41:59.704Z,93.80
2018-11-29T23:44:29.743Z,90.00
2018-11-29T23:47:01.219Z,100.00
2018-11-29T23:49:31.207Z,103.00
2018-11-29T23:52:01.261Z,94.50
2018-11-29T23:54:31.438Z,92.50
2018-11-29T23:57:01.682Z,93.60
2018-11-29T23:59:31.684Z,97.25
